createdAt,value
2022-08-17T00:00:18.294Z,22.38
2022-08-17T00:02:01.470Z,22.31
2022-08-17T00:03:32.783Z,22.25
2022-08-17T00:05:07.571Z,22.25
2022-08-17T00:06:12.314Z,22.19
2022-08-17T00:07:15.303Z,22.19
2022-08-17T00:08:50.015Z,22.13
2022-08-17T00:09:58.972Z,22.13
2022-08-17T00:11:01.778Z,22.13
2022-08-17T00:13:37.350Z,22.13
2022-08-17T00:14:42.146Z,22.06
2022-08-17T00:15:45.615Z,22.06
2022-08-17T00:17:43.432Z,22.00
2022-08-17T00:19:43.672Z,21.94
2022-08-17T00:20:46.450Z,21.94
2022-08-17T00:23:21.627Z,22.00
2022-08-17T00:24:30.459Z,22.00
2022-08-17T00:25:33.445Z,22.06
2022-08-17T00:27:30.793Z,22.06
2022-08-17T00:28:35.199Z,22.06
2022-08-17T00:29:39.629Z,22.06
2022-08-17T00:31:34.019Z,22.06
2022-08-17T00:33:47.577Z,22.06
2022-08-17T00:34:50.224Z,22.06
2022-08-17T00:36:24.788Z,22.06
2022-08-17T00:37:27.685Z,22.06
2022-08-17T00:38:30.699Z,22.06
2022-08-17T00:40:05.785Z,22.06
2022-08-17T00:41:26.649Z,22.06
2022-08-17T00:42:34.655Z,22.00
2022-08-17T00:44:09.776Z,22.00
2022-08-17T00:45:21.982Z,21.94
2022-08-17T00:46:25.015Z,21.94
2022-08-17T00:47:59.595Z,21.94
2022-08-17T00:49:22.085Z,21.88
2022-08-17T00:50:25.948Z,21.88
2022-08-17T00:52:00.839Z,21.88
2022-08-17T00:53:09.365Z,21.81
2022-08-17T00:54:12.162Z,21.81
2022-08-17T00:55:54.415Z,21.75
2022-08-17T00:56:57.453Z,21.69
2022-08-17T00:58:00.335Z,21.63
2022-08-17T00:59:56.120Z,21.50
2022-08-17T01:00:12.255Z,21.44
2022-08-17T01:01:21.290Z,21.38
2022-08-17T01:02:25.225Z,21.31
2022-08-17T01:04:06.738Z,21.25
2022-08-17T01:05:09.694Z,21.19
2022-08-17T01:06:17.386Z,21.19
2022-08-17T01:07:52.543Z,21.19
2022-08-17T01:08:57.622Z,21.19
2022-08-17T01:10:00.789Z,21.25
2022-08-17T01:12:24.906Z,21.31
2022-08-17T01:13:27.525Z,21.31
2022-08-17T01:14:37.847Z,21.44
2022-08-17T01:16:12.448Z,21.44
2022-08-17T01:17:15.266Z,21.44
2022-08-17T01:18:18.404Z,21.44
2022-08-17T01:19:52.898Z,21.50
2022-08-17T01:20:55.939Z,21.50
2022-08-17T01:21:58.824Z,21.50
2022-08-17T01:23:34.809Z,21.50
2022-08-17T01:24:37.613Z,21.50
2022-08-17T01:25:40.564Z,21.50
2022-08-17T01:27:18.625Z,21.50
2022-08-17T01:28:33.229Z,21.50
2022-08-17T01:29:56.012Z,21.44
2022-08-17T01:32:22.587Z,21.44
2022-08-17T01:33:25.687Z,21.38
2022-08-17T01:34:36.875Z,21.38
2022-08-17T01:36:19.811Z,21.31
2022-08-17T01:37:22.488Z,21.31
2022-08-17T01:38:27.020Z,21.25
2022-08-17T01:40:02.117Z,21.25
2022-08-17T01:41:05.068Z,21.25
2022-08-17T01:42:07.815Z,21.25
2022-08-17T01:43:44.916Z,21.25
2022-08-17T01:44:47.735Z,21.25
2022-08-17T01:46:03.119Z,21.19
2022-08-17T01:47:41.625Z,21.19
2022-08-17T01:48:44.599Z,21.19
2022-08-17T01:49:47.273Z,21.25
2022-08-17T01:51:21.979Z,21.19
2022-08-17T01:52:24.992Z,21.19
2022-08-17T01:53:28.160Z,21.19
2022-08-17T01:55:02.803Z,21.19
2022-08-17T01:56:09.454Z,21.19
2022-08-17T01:57:12.244Z,21.19
2022-08-17T01:58:48.172Z,21.19
2022-08-17T01:59:50.956Z,21.19
2022-08-17T02:00:11.880Z,21.19
2022-08-17T02:01:45.691Z,21.19
2022-08-17T02:03:06.008Z,21.25
2022-08-17T02:04:47.688Z,21.25
2022-08-17T02:05:50.623Z,21.25
2022-08-17T02:08:00.101Z,21.25
2022-08-17T02:10:34.514Z,21.25
2022-08-17T02:11:51.620Z,21.19
2022-08-17T02:13:31.756Z,21.19
2022-08-17T02:15:16.501Z,21.13
2022-08-17T02:16:19.291Z,21.13
2022-08-17T02:17:29.696Z,21.13
2022-08-17T02:19:12.653Z,21.06
2022-08-17T02:20:15.281Z,21.06
2022-08-17T02:21:44.024Z,21.06
2022-08-17T02:23:18.545Z,21.00
2022-08-17T02:25:00.591Z,21.00
2022-08-17T02:26:04.787Z,20.94
2022-08-17T02:27:54.512Z,20.94
2022-08-17T02:28:57.249Z,20.94
2022-08-17T02:30:00.043Z,20.94
2022-08-17T02:32:29.629Z,20.88
2022-08-17T02:33:42.270Z,20.88
2022-08-17T02:35:01.518Z,20.88
2022-08-17T02:36:39.923Z,20.88
2022-08-17T02:37:42.576Z,20.81
2022-08-17T02:38:49.114Z,20.81
2022-08-17T02:40:36.464Z,20.81
2022-08-17T02:41:42.255Z,20.81
2022-08-17T02:42:45.505Z,20.81
2022-08-17T02:44:39.305Z,20.81
2022-08-17T02:45:42.730Z,20.81
2022-08-17T02:46:45.378Z,20.81
2022-08-17T02:48:30.884Z,20.81
2022-08-17T02:49:34.411Z,20.81
2022-08-17T02:50:47.545Z,20.81
2022-08-17T02:52:43.789Z,20.81
2022-08-17T02:54:35.839Z,20.81
2022-08-17T02:55:43.599Z,20.75
2022-08-17T02:57:18.155Z,20.75
2022-08-17T02:58:34.314Z,20.75
2022-08-17T02:59:38.568Z,20.75
2022-08-17T03:00:12.493Z,20.75
2022-08-17T03:01:15.207Z,20.75
2022-08-17T03:02:19.049Z,20.75
2022-08-17T03:03:53.753Z,20.69
2022-08-17T03:04:56.505Z,20.69
2022-08-17T03:05:59.251Z,20.69
2022-08-17T03:07:33.765Z,20.75
2022-08-17T03:08:36.605Z,20.75
2022-08-17T03:09:39.284Z,20.69
2022-08-17T03:11:14.486Z,20.69
2022-08-17T03:12:17.297Z,20.69
2022-08-17T03:13:19.951Z,20.69
2022-08-17T03:15:01.078Z,20.75
2022-08-17T03:16:03.903Z,20.75
2022-08-17T03:17:08.288Z,20.81
2022-08-17T03:18:59.209Z,20.81
2022-08-17T03:20:01.942Z,20.81
2022-08-17T03:21:04.643Z,20.88
2022-08-17T03:23:24.217Z,20.88
2022-08-17T03:24:34.903Z,20.88
2022-08-17T03:25:45.529Z,20.94
2022-08-17T03:27:36.374Z,20.94
2022-08-17T03:28:47.438Z,20.94
2022-08-17T03:29:50.383Z,21.00
2022-08-17T03:31:27.847Z,21.00
2022-08-17T03:32:34.292Z,21.00
2022-08-17T03:33:37.110Z,21.00
2022-08-17T03:35:12.095Z,21.00
2022-08-17T03:36:16.242Z,21.00
2022-08-17T03:37:22.391Z,21.00
2022-08-17T03:39:20.111Z,21.00
2022-08-17T03:40:39.895Z,21.00
2022-08-17T03:42:01.090Z,21.00
2022-08-17T03:43:56.796Z,21.00
2022-08-17T03:44:59.640Z,21.00
2022-08-17T03:46:10.888Z,21.00
2022-08-17T03:48:04.710Z,21.00
2022-08-17T03:49:07.685Z,21.00
2022-08-17T03:50:10.638Z,21.00
2022-08-17T03:51:49.662Z,21.00
2022-08-17T03:52:52.391Z,21.00
2022-08-17T03:53:55.791Z,21.00
2022-08-17T03:55:36.071Z,21.00
2022-08-17T03:56:39.319Z,21.00
2022-08-17T03:57:42.011Z,21.00
2022-08-17T03:59:21.186Z,21.00
2022-08-17T04:00:12.247Z,21.00
2022-08-17T04:01:20.106Z,21.00
2022-08-17T04:02:23.569Z,21.00
2022-08-17T04:03:58.487Z,20.94
2022-08-17T04:05:42.090Z,20.94
2022-08-17T04:06:45.266Z,20.94
2022-08-17T04:07:48.177Z,20.94
2022-08-17T04:09:23.465Z,20.88
2022-08-17T04:10:26.558Z,20.88
2022-08-17T04:11:37.139Z,20.88
2022-08-17T04:13:24.694Z,20.88
2022-08-17T04:14:28.794Z,20.88
2022-08-17T04:15:46.227Z,20.81
2022-08-17T04:17:22.516Z,20.81
2022-08-17T04:18:25.433Z,20.81
2022-08-17T04:19:31.056Z,20.81
2022-08-17T04:21:06.059Z,20.81
2022-08-17T04:22:08.909Z,20.81
2022-08-17T04:23:36.507Z,20.81
2022-08-17T04:25:12.406Z,20.75
2022-08-17T04:26:52.287Z,20.75
2022-08-17T04:27:57.219Z,20.75
2022-08-17T04:29:54.385Z,20.75
2022-08-17T04:30:58.338Z,20.75
2022-08-17T04:32:01.396Z,20.69
2022-08-17T04:34:22.268Z,20.69
2022-08-17T04:35:25.334Z,20.69
2022-08-17T04:36:29.652Z,20.69
2022-08-17T04:38:13.911Z,20.69
2022-08-17T04:39:17.057Z,20.69
2022-08-17T04:40:20.362Z,20.69
2022-08-17T04:41:56.696Z,20.69
2022-08-17T04:43:00.130Z,20.69
2022-08-17T04:44:05.218Z,20.69
2022-08-17T04:46:07.427Z,20.69
2022-08-17T04:47:10.541Z,20.69
2022-08-17T04:48:16.248Z,20.75
2022-08-17T04:50:00.535Z,20.75
2022-08-17T04:51:03.381Z,20.69
2022-08-17T04:52:06.469Z,20.63
2022-08-17T04:54:14.091Z,20.56
2022-08-17T04:55:17.241Z,20.56
2022-08-17T04:56:20.026Z,20.56
2022-08-17T04:57:54.996Z,20.50
2022-08-17T04:58:58.006Z,20.44
2022-08-17T05:00:00.902Z,20.38
2022-08-17T05:00:12.039Z,20.38
2022-08-17T05:01:14.990Z,20.38
2022-08-17T05:02:22.063Z,20.38
2022-08-17T05:04:21.022Z,20.38
2022-08-17T05:05:37.939Z,20.38
2022-08-17T05:06:41.052Z,20.38
2022-08-17T05:08:17.999Z,20.31
2022-08-17T05:09:20.835Z,20.31
2022-08-17T05:10:24.299Z,20.25
2022-08-17T05:12:03.604Z,20.19
2022-08-17T05:13:06.328Z,20.13
2022-08-17T05:14:09.432Z,20.13
2022-08-17T05:15:54.274Z,20.06
2022-08-17T05:16:57.143Z,20.00
2022-08-17T05:18:08.483Z,20.00
2022-08-17T05:19:43.275Z,20.00
2022-08-17T05:20:49.458Z,20.06
2022-08-17T05:21:55.543Z,20.13
2022-08-17T05:23:37.855Z,20.19
2022-08-17T05:25:37.551Z,20.19
2022-08-17T05:27:06.136Z,20.19
2022-08-17T05:29:02.614Z,20.19
2022-08-17T05:30:16.175Z,20.19
2022-08-17T05:31:19.133Z,20.19
2022-08-17T05:33:26.441Z,20.19
2022-08-17T05:34:35.858Z,20.25
2022-08-17T05:35:39.644Z,20.25
2022-08-17T05:37:30.034Z,20.31
2022-08-17T05:38:33.226Z,20.25
2022-08-17T05:39:36.203Z,20.19
2022-08-17T05:41:13.652Z,20.13
2022-08-17T05:42:16.733Z,20.13
2022-08-17T05:43:19.625Z,20.13
2022-08-17T05:44:54.379Z,20.13
2022-08-17T05:46:31.095Z,20.19
2022-08-17T05:47:33.964Z,20.19
2022-08-17T05:49:26.062Z,20.06
2022-08-17T05:50:30.012Z,20.00
2022-08-17T05:51:32.985Z,20.06
2022-08-17T05:53:07.934Z,20.06
2022-08-17T05:54:17.839Z,20.13
2022-08-17T05:55:20.652Z,20.19
2022-08-17T05:57:15.950Z,20.25
2022-08-17T05:58:34.921Z,20.38
2022-08-17T05:59:37.867Z,20.44
2022-08-17T06:00:12.601Z,20.44
2022-08-17T06:01:28.363Z,20.50
2022-08-17T06:02:31.730Z,20.56
2022-08-17T06:04:12.187Z,20.63
2022-08-17T06:05:14.895Z,20.69
2022-08-17T06:06:17.934Z,20.69
2022-08-17T06:08:00.614Z,20.69
2022-08-17T06:09:03.469Z,20.69
2022-08-17T06:10:14.943Z,20.69
2022-08-17T06:11:53.469Z,20.69
2022-08-17T06:13:06.660Z,20.63
2022-08-17T06:14:09.710Z,20.63
2022-08-17T06:15:44.457Z,20.63
2022-08-17T06:17:15.152Z,20.69
2022-08-17T06:18:19.242Z,20.63
2022-08-17T06:19:54.330Z,20.63
2022-08-17T06:20:58.922Z,20.63
2022-08-17T06:22:10.980Z,20.56
2022-08-17T06:23:46.019Z,20.56
2022-08-17T06:24:49.023Z,20.56
2022-08-17T06:25:57.257Z,20.56
2022-08-17T06:27:45.184Z,20.56
2022-08-17T06:28:54.564Z,20.56
2022-08-17T06:30:05.153Z,20.56
2022-08-17T06:32:07.216Z,20.63
2022-08-17T06:33:10.210Z,20.63
2022-08-17T06:34:13.217Z,20.63
2022-08-17T06:35:48.383Z,20.56
2022-08-17T06:37:04.745Z,20.63
2022-08-17T06:38:08.556Z,20.56
2022-08-17T06:40:08.054Z,20.56
2022-08-17T06:41:11.175Z,20.56
2022-08-17T06:43:02.886Z,20.56
2022-08-17T06:44:51.109Z,20.75
2022-08-17T06:45:54.745Z,20.75
2022-08-17T06:46:57.781Z,20.75
2022-08-17T06:48:46.358Z,20.75
2022-08-17T06:49:54.663Z,20.75
2022-08-17T06:50:58.230Z,20.75
2022-08-17T06:52:47.132Z,20.75
2022-08-17T06:53:50.641Z,20.75
2022-08-17T06:54:55.243Z,20.75
2022-08-17T06:56:53.871Z,20.69
2022-08-17T06:57:58.042Z,20.69
2022-08-17T06:59:17.178Z,20.69
2022-08-17T07:00:12.291Z,20.75
2022-08-17T07:01:15.604Z,20.81
2022-08-17T07:02:19.237Z,20.88
2022-08-17T07:04:23.052Z,21.00
2022-08-17T07:05:29.504Z,21.00
2022-08-17T07:06:33.030Z,21.00
2022-08-17T07:08:12.932Z,21.00
2022-08-17T07:09:22.165Z,21.06
2022-08-17T07:10:25.339Z,21.06
2022-08-17T07:12:00.280Z,21.13
2022-08-17T07:13:03.191Z,21.13
2022-08-17T07:14:06.095Z,21.19
2022-08-17T07:15:46.505Z,21.19
2022-08-17T07:16:54.635Z,21.25
2022-08-17T07:18:22.745Z,21.25
2022-08-17T07:19:58.231Z,21.38
2022-08-17T07:21:01.701Z,21.31
2022-08-17T07:22:12.877Z,21.44
2022-08-17T07:24:30.304Z,21.56
2022-08-17T07:25:33.705Z,21.56
2022-08-17T07:26:36.818Z,21.75
2022-08-17T07:28:11.894Z,21.81
2022-08-17T07:29:14.798Z,21.94
2022-08-17T07:30:17.727Z,22.06
2022-08-17T07:32:05.714Z,22.19
2022-08-17T07:33:08.433Z,22.19
2022-08-17T07:34:16.507Z,22.19
2022-08-17T07:35:56.821Z,22.19
2022-08-17T07:37:04.845Z,22.13
2022-08-17T07:38:07.702Z,22.06
2022-08-17T07:40:16.014Z,22.13
2022-08-17T07:41:20.449Z,22.13
2022-08-17T07:42:51.104Z,22.13
2022-08-17T07:44:41.909Z,22.13
2022-08-17T07:45:44.818Z,22.13
2022-08-17T07:46:51.532Z,22.13
2022-08-17T07:48:26.612Z,22.13
2022-08-17T07:49:29.686Z,22.13
2022-08-17T07:50:34.479Z,22.13
2022-08-17T07:52:48.173Z,22.19
2022-08-17T07:54:04.785Z,22.19
2022-08-17T07:55:16.447Z,22.19
2022-08-17T07:56:51.121Z,22.19
2022-08-17T07:57:53.936Z,22.19
2022-08-17T07:58:57.107Z,22.19
2022-08-17T08:00:16.098Z,22.19
2022-08-17T08:01:39.426Z,22.19
2022-08-17T08:03:03.821Z,22.25
2022-08-17T08:05:00.628Z,22.31
2022-08-17T08:06:38.503Z,22.38
2022-08-17T08:07:41.509Z,22.38
2022-08-17T08:09:21.847Z,22.44
2022-08-17T08:10:25.817Z,22.50
2022-08-17T08:11:31.473Z,22.56
2022-08-17T08:13:28.750Z,22.69
2022-08-17T08:14:32.020Z,22.69
2022-08-17T08:15:35.153Z,22.69
2022-08-17T08:17:18.305Z,22.69
2022-08-17T08:18:53.333Z,22.69
2022-08-17T08:20:01.762Z,22.63
2022-08-17T08:22:26.583Z,22.75
2022-08-17T08:23:29.601Z,22.81
2022-08-17T08:24:32.513Z,22.81
2022-08-17T08:26:09.594Z,22.88
2022-08-17T08:27:17.557Z,22.88
2022-08-17T08:28:20.528Z,22.88
2022-08-17T08:29:57.493Z,22.94
2022-08-17T08:31:00.682Z,22.88
2022-08-17T08:32:03.959Z,22.94
2022-08-17T08:33:39.366Z,22.94
2022-08-17T08:35:19.551Z,23.00
2022-08-17T08:36:57.074Z,23.00
2022-08-17T08:39:08.816Z,23.06
2022-08-17T08:40:12.344Z,23.06
2022-08-17T08:41:15.477Z,23.13
2022-08-17T08:42:51.129Z,23.13
2022-08-17T08:43:54.138Z,23.00
2022-08-17T08:45:36.165Z,23.00
2022-08-17T08:47:11.100Z,23.06
2022-08-17T08:48:52.750Z,23.06
2022-08-17T08:51:13.174Z,23.06
2022-08-17T08:52:50.965Z,23.13
2022-08-17T08:53:55.324Z,23.13
2022-08-17T08:55:07.679Z,23.13
2022-08-17T08:57:11.547Z,23.19
2022-08-17T08:58:41.806Z,23.19
2022-08-17T08:59:45.438Z,23.19
2022-08-17T09:00:12.745Z,23.19
2022-08-17T09:01:16.865Z,23.25
2022-08-17T09:02:20.880Z,23.25
2022-08-17T09:04:26.317Z,23.19
2022-08-17T09:06:33.509Z,23.31
2022-08-17T09:07:42.728Z,23.19
2022-08-17T09:09:21.276Z,23.13
2022-08-17T09:10:24.651Z,23.19
2022-08-17T09:11:28.030Z,23.25
2022-08-17T09:13:26.945Z,23.44
2022-08-17T09:14:45.021Z,23.56
2022-08-17T09:15:53.470Z,23.63
2022-08-17T09:17:28.931Z,23.69
2022-08-17T09:19:39.089Z,23.44
2022-08-17T09:20:45.358Z,23.38
2022-08-17T09:22:34.433Z,23.31
2022-08-17T09:23:38.158Z,23.31
2022-08-17T09:24:41.124Z,23.38
2022-08-17T09:26:16.034Z,23.44
2022-08-17T09:27:21.394Z,23.44
2022-08-17T09:28:24.941Z,23.44
2022-08-17T09:29:59.961Z,23.44
2022-08-17T09:31:04.434Z,23.50
2022-08-17T09:32:24.203Z,23.56
2022-08-17T09:33:59.150Z,23.69
2022-08-17T09:35:08.655Z,23.75
2022-08-17T09:36:23.496Z,23.81
2022-08-17T09:37:58.416Z,23.81
2022-08-17T09:39:07.270Z,23.81
2022-08-17T09:40:10.873Z,23.75
2022-08-17T09:41:48.863Z,23.75
2022-08-17T09:42:52.401Z,23.81
2022-08-17T09:43:55.109Z,23.94
2022-08-17T09:45:47.490Z,24.13
2022-08-17T09:46:50.630Z,24.31
2022-08-17T09:47:53.427Z,24.38
2022-08-17T09:49:30.710Z,24.44
2022-08-17T09:51:03.355Z,24.50
2022-08-17T09:52:08.750Z,24.56
2022-08-17T09:53:46.916Z,24.50
2022-08-17T09:55:26.189Z,24.50
2022-08-17T09:56:29.315Z,24.50
2022-08-17T09:58:43.136Z,24.63
2022-08-17T09:59:45.950Z,24.63
2022-08-17T10:00:12.435Z,24.63
2022-08-17T10:01:15.764Z,24.63
2022-08-17T10:02:19.582Z,24.63
2022-08-17T10:03:54.900Z,24.63
2022-08-17T10:05:04.614Z,24.69
2022-08-17T10:06:07.728Z,24.63
2022-08-17T10:07:46.201Z,24.63
2022-08-17T10:08:49.630Z,24.63
2022-08-17T10:09:52.510Z,24.63
2022-08-17T10:11:45.697Z,24.69
2022-08-17T10:12:53.101Z,24.75
2022-08-17T10:14:35.893Z,24.75
2022-08-17T10:16:29.871Z,24.75
2022-08-17T10:17:32.845Z,24.69
2022-08-17T10:18:36.382Z,24.50
2022-08-17T10:20:11.766Z,24.38
2022-08-17T10:21:14.765Z,24.25
2022-08-17T10:22:34.883Z,24.13
2022-08-17T10:24:18.482Z,24.00
2022-08-17T10:26:23.979Z,24.06
2022-08-17T10:27:54.578Z,24.13
2022-08-17T10:29:48.902Z,24.19
2022-08-17T10:31:05.473Z,24.31
2022-08-17T10:32:32.834Z,24.31
2022-08-17T10:34:07.890Z,24.31
2022-08-17T10:35:21.349Z,24.25
2022-08-17T10:36:24.345Z,24.25
2022-08-17T10:37:59.890Z,24.19
2022-08-17T10:39:10.502Z,24.19
2022-08-17T10:40:28.145Z,24.19
2022-08-17T10:42:03.167Z,24.19
2022-08-17T10:43:22.141Z,24.19
2022-08-17T10:45:21.001Z,24.13
2022-08-17T10:47:54.683Z,24.19
2022-08-17T10:49:04.531Z,24.19
2022-08-17T10:50:07.491Z,24.19
2022-08-17T10:51:42.729Z,24.25
2022-08-17T10:52:45.710Z,24.19
2022-08-17T10:53:54.652Z,24.19
2022-08-17T10:55:33.784Z,24.19
2022-08-17T10:56:36.620Z,24.19
2022-08-17T10:57:39.558Z,24.19
2022-08-17T10:59:14.744Z,24.25
2022-08-17T11:00:12.052Z,24.25
2022-08-17T11:01:19.715Z,24.31
2022-08-17T11:02:22.992Z,24.31
2022-08-17T11:03:58.266Z,24.25
2022-08-17T11:05:05.799Z,24.31
2022-08-17T11:06:08.812Z,24.31
2022-08-17T11:07:43.582Z,24.38
2022-08-17T11:08:46.524Z,24.44
2022-08-17T11:09:49.450Z,24.44
2022-08-17T11:11:29.201Z,24.50
2022-08-17T11:12:32.081Z,24.50
2022-08-17T11:13:35.089Z,24.50
2022-08-17T11:15:10.453Z,24.56
2022-08-17T11:16:16.988Z,24.63
2022-08-17T11:17:19.880Z,24.63
2022-08-17T11:18:56.386Z,24.69
2022-08-17T11:19:59.467Z,24.69
2022-08-17T11:21:02.571Z,24.63
2022-08-17T11:22:37.573Z,24.63
2022-08-17T11:23:40.643Z,24.63
2022-08-17T11:24:43.653Z,24.63
2022-08-17T11:26:20.649Z,24.75
2022-08-17T11:27:23.859Z,24.75
2022-08-17T11:28:27.125Z,24.88
2022-08-17T11:30:06.155Z,24.88
2022-08-17T11:31:14.320Z,24.88
2022-08-17T11:32:47.058Z,24.88
2022-08-17T11:34:28.568Z,24.88
2022-08-17T11:35:31.491Z,24.88
2022-08-17T11:36:36.018Z,24.88
2022-08-17T11:38:16.008Z,24.94
2022-08-17T11:39:20.303Z,24.94
2022-08-17T11:40:24.250Z,24.94
2022-08-17T11:41:59.362Z,24.88
2022-08-17T11:43:02.101Z,24.88
2022-08-17T11:44:06.096Z,24.88
2022-08-17T11:45:41.091Z,24.88
2022-08-17T11:46:43.940Z,24.88
2022-08-17T11:48:23.637Z,24.88
2022-08-17T11:50:02.579Z,24.81
2022-08-17T11:51:09.383Z,24.81
2022-08-17T11:52:12.345Z,24.81
2022-08-17T11:54:08.681Z,24.81
2022-08-17T11:56:06.542Z,24.75
2022-08-17T11:57:09.622Z,24.75
2022-08-17T11:58:45.040Z,24.69
2022-08-17T11:59:48.166Z,24.63
2022-08-17T12:00:12.772Z,24.63
2022-08-17T12:01:16.331Z,24.63
2022-08-17T12:02:19.324Z,24.63
2022-08-17T12:04:06.251Z,24.69
2022-08-17T12:05:11.997Z,24.69
2022-08-17T12:06:15.399Z,24.75
2022-08-17T12:07:54.975Z,24.75
2022-08-17T12:08:58.109Z,24.81
2022-08-17T12:10:01.385Z,24.81
2022-08-17T12:12:11.350Z,24.81
2022-08-17T12:13:16.679Z,24.81
2022-08-17T12:15:05.779Z,24.69
2022-08-17T12:16:45.510Z,24.63
2022-08-17T12:18:14.837Z,24.56
2022-08-17T12:19:17.900Z,24.56
2022-08-17T12:20:56.633Z,24.56
2022-08-17T12:22:00.836Z,24.56
2022-08-17T12:23:03.907Z,24.63
2022-08-17T12:24:39.157Z,24.63
2022-08-17T12:25:42.401Z,24.63
2022-08-17T12:26:46.217Z,24.63
2022-08-17T12:28:55.283Z,24.63
2022-08-17T12:30:25.159Z,24.63
2022-08-17T12:31:28.799Z,24.56
2022-08-17T12:33:03.989Z,24.56
2022-08-17T12:34:19.814Z,24.50
2022-08-17T12:35:22.864Z,24.50
2022-08-17T12:37:04.360Z,24.50
2022-08-17T12:38:07.292Z,24.50
2022-08-17T12:39:49.950Z,24.44
2022-08-17T12:41:25.825Z,24.44
2022-08-17T12:42:37.210Z,24.44
2022-08-17T12:43:40.355Z,24.38
2022-08-17T12:45:25.725Z,24.38
2022-08-17T12:46:28.798Z,24.38
2022-08-17T12:47:33.663Z,24.38
2022-08-17T12:49:08.835Z,24.38
2022-08-17T12:50:29.532Z,24.38
2022-08-17T12:51:33.219Z,24.31
2022-08-17T12:53:08.407Z,24.31
2022-08-17T12:54:11.620Z,24.31
2022-08-17T12:55:14.787Z,24.31
2022-08-17T12:56:56.893Z,24.38
2022-08-17T12:58:01.825Z,24.38
2022-08-17T12:59:11.726Z,24.38
2022-08-17T13:00:12.288Z,24.38
2022-08-17T13:01:22.426Z,24.31
2022-08-17T13:02:25.998Z,24.31
2022-08-17T13:04:00.695Z,24.31
2022-08-17T13:05:06.870Z,24.31
2022-08-17T13:06:09.941Z,24.31
2022-08-17T13:07:46.754Z,24.25
2022-08-17T13:08:51.986Z,24.25
2022-08-17T13:09:54.986Z,24.25
2022-08-17T13:11:31.779Z,24.19
2022-08-17T13:12:34.859Z,24.13
2022-08-17T13:13:38.196Z,24.13
2022-08-17T13:15:14.545Z,24.06
2022-08-17T13:16:23.726Z,24.00
2022-08-17T13:17:26.790Z,24.00
2022-08-17T13:19:02.049Z,23.94
2022-08-17T13:20:26.068Z,23.94
2022-08-17T13:21:29.353Z,23.88
2022-08-17T13:23:07.489Z,23.88
2022-08-17T13:24:28.859Z,23.81
2022-08-17T13:25:40.830Z,23.75
2022-08-17T13:27:15.855Z,23.69
2022-08-17T13:28:30.593Z,23.63
2022-08-17T13:29:39.045Z,23.63
2022-08-17T13:31:17.033Z,23.50
2022-08-17T13:32:48.574Z,23.44
2022-08-17T13:34:20.063Z,23.38
2022-08-17T13:36:56.875Z,23.38
2022-08-17T13:38:08.634Z,23.31
2022-08-17T13:39:11.715Z,23.25
2022-08-17T13:40:47.728Z,23.25
2022-08-17T13:41:55.988Z,23.19
2022-08-17T13:43:03.189Z,23.19
2022-08-17T13:46:11.979Z,23.13
2022-08-17T13:47:15.056Z,23.13
2022-08-17T13:48:54.884Z,23.13
2022-08-17T13:49:57.859Z,23.13
2022-08-17T13:51:01.123Z,23.13
2022-08-17T13:52:38.004Z,23.13
2022-08-17T13:53:44.173Z,23.13
2022-08-17T13:54:47.442Z,23.13
2022-08-17T13:56:33.380Z,23.13
2022-08-17T13:57:41.915Z,23.13
2022-08-17T13:58:59.404Z,23.13
2022-08-17T14:00:11.987Z,23.13
2022-08-17T14:01:15.292Z,23.13
2022-08-17T14:02:18.814Z,22.75
2022-08-17T14:03:57.941Z,22.75
2022-08-17T14:05:01.049Z,22.75
2022-08-17T14:06:07.234Z,22.75
2022-08-17T14:08:17.752Z,22.75
2022-08-17T14:09:21.147Z,22.75
2022-08-17T14:10:29.139Z,22.75
2022-08-17T14:12:04.127Z,22.75
2022-08-17T14:13:07.447Z,22.75
2022-08-17T14:14:10.552Z,22.75
2022-08-17T14:15:55.602Z,22.75
2022-08-17T14:16:59.423Z,22.75
2022-08-17T14:18:11.301Z,22.75
2022-08-17T14:20:19.491Z,22.75
2022-08-17T14:21:22.981Z,22.75
2022-08-17T14:22:26.148Z,22.75
2022-08-17T14:24:01.006Z,22.75
2022-08-17T14:25:04.304Z,22.75
2022-08-17T14:26:11.634Z,22.75
2022-08-17T14:27:53.433Z,22.75
2022-08-17T14:28:57.782Z,22.25
2022-08-17T14:30:12.347Z,22.25
2022-08-17T14:31:53.397Z,22.25
2022-08-17T14:32:57.782Z,22.25
2022-08-17T14:34:00.864Z,22.19
2022-08-17T14:35:36.237Z,22.25
2022-08-17T14:36:39.153Z,22.19
2022-08-17T14:37:51.530Z,22.13
2022-08-17T14:39:27.220Z,22.06
2022-08-17T14:40:31.219Z,21.94
2022-08-17T14:41:34.389Z,21.88
2022-08-17T14:43:09.147Z,21.88
2022-08-17T14:44:12.287Z,21.94
2022-08-17T14:45:31.640Z,21.94
2022-08-17T14:47:08.152Z,21.94
2022-08-17T14:48:11.155Z,22.00
2022-08-17T14:49:14.252Z,22.00
2022-08-17T14:51:01.486Z,22.00
2022-08-17T14:52:04.498Z,22.00
2022-08-17T14:53:07.575Z,22.00
2022-08-17T14:54:45.677Z,21.94
2022-08-17T14:55:48.956Z,21.94
2022-08-17T14:56:55.028Z,21.94
2022-08-17T14:59:03.986Z,21.94
2022-08-17T15:00:12.782Z,21.94
2022-08-17T15:01:15.735Z,21.94
2022-08-17T15:02:19.234Z,21.94
2022-08-17T15:04:00.440Z,21.88
2022-08-17T15:05:03.564Z,21.88
2022-08-17T15:06:06.762Z,21.88
2022-08-17T15:07:41.902Z,21.88
2022-08-17T15:08:45.407Z,21.88
2022-08-17T15:09:51.663Z,21.81
2022-08-17T15:11:29.305Z,21.81
2022-08-17T15:12:34.011Z,21.88
2022-08-17T15:13:37.360Z,21.88
2022-08-17T15:15:27.391Z,21.88
2022-08-17T15:16:30.520Z,21.81
2022-08-17T15:17:43.979Z,21.81
2022-08-17T15:19:21.948Z,21.88
2022-08-17T15:20:25.071Z,21.88
2022-08-17T15:21:28.214Z,21.94
2022-08-17T15:23:04.191Z,22.00
2022-08-17T15:24:07.390Z,22.00
2022-08-17T15:25:10.418Z,22.00
2022-08-17T15:26:45.776Z,22.06
2022-08-17T15:27:58.909Z,22.06
2022-08-17T15:29:01.860Z,22.13
2022-08-17T15:30:36.650Z,22.13
2022-08-17T15:31:39.707Z,22.13
2022-08-17T15:32:54.369Z,22.06
2022-08-17T15:34:30.340Z,22.13
2022-08-17T15:35:33.489Z,22.19
2022-08-17T15:36:36.517Z,22.19
2022-08-17T15:38:19.221Z,22.19
2022-08-17T15:39:25.427Z,22.19
2022-08-17T15:40:29.091Z,22.19
2022-08-17T15:42:06.167Z,22.19
2022-08-17T15:43:09.254Z,22.19
2022-08-17T15:44:19.315Z,22.13
2022-08-17T15:46:04.663Z,22.13
2022-08-17T15:47:10.137Z,22.13
2022-08-17T15:48:15.635Z,22.13
2022-08-17T15:49:50.496Z,22.13
2022-08-17T15:50:57.747Z,22.13
2022-08-17T15:52:00.713Z,22.13
2022-08-17T15:53:35.663Z,22.13
2022-08-17T15:54:54.253Z,22.13
2022-08-17T15:56:04.055Z,22.13
2022-08-17T15:57:39.149Z,22.13
2022-08-17T15:58:42.509Z,22.13
2022-08-17T15:59:45.632Z,22.13
2022-08-17T16:00:12.332Z,22.13
2022-08-17T16:03:01.492Z,22.13
2022-08-17T16:05:41.481Z,22.13
2022-08-17T16:06:48.824Z,22.13
2022-08-17T16:07:52.836Z,22.13
2022-08-17T16:09:33.669Z,21.94
2022-08-17T16:10:37.037Z,21.94
2022-08-17T16:11:40.322Z,21.94
2022-08-17T16:13:23.140Z,21.88
2022-08-17T16:14:35.610Z,21.88
2022-08-17T16:15:38.524Z,21.88
2022-08-17T16:17:39.643Z,21.88
2022-08-17T16:18:44.221Z,21.81
2022-08-17T16:19:53.657Z,21.81
2022-08-17T16:21:42.561Z,21.88
2022-08-17T16:22:46.393Z,21.81
2022-08-17T16:23:55.047Z,21.88
2022-08-17T16:25:53.534Z,21.88
2022-08-17T16:26:56.873Z,21.81
2022-08-17T16:28:04.712Z,21.81
2022-08-17T16:29:48.435Z,21.75
2022-08-17T16:31:03.279Z,21.81
2022-08-17T16:32:06.828Z,21.81
2022-08-17T16:34:15.530Z,21.81
2022-08-17T16:35:21.046Z,21.81
2022-08-17T16:36:25.469Z,21.81
2022-08-17T16:38:20.389Z,21.81
2022-08-17T16:39:23.448Z,21.81
2022-08-17T16:40:27.418Z,21.81
2022-08-17T16:42:05.689Z,21.81
2022-08-17T16:43:08.632Z,21.81
2022-08-17T16:44:15.336Z,21.75
2022-08-17T16:45:52.259Z,21.75
2022-08-17T16:46:55.509Z,21.81
2022-08-17T16:47:58.703Z,21.81
2022-08-17T16:49:36.815Z,21.81
2022-08-17T16:50:41.173Z,21.81
2022-08-17T16:52:01.050Z,21.75
2022-08-17T16:53:57.812Z,21.75
2022-08-17T16:55:08.906Z,21.69
2022-08-17T16:56:11.928Z,21.69
2022-08-17T16:57:47.472Z,21.75
2022-08-17T16:58:53.609Z,21.75
2022-08-17T17:00:12.365Z,21.75
2022-08-17T17:01:15.494Z,21.75
2022-08-17T17:02:18.787Z,21.69
2022-08-17T17:04:06.211Z,21.69
2022-08-17T17:05:10.348Z,21.69
2022-08-17T17:06:13.672Z,21.63
2022-08-17T17:07:52.501Z,21.69
2022-08-17T17:08:55.599Z,21.63
2022-08-17T17:09:58.764Z,21.63
2022-08-17T17:11:35.610Z,21.63
2022-08-17T17:13:03.860Z,21.56
2022-08-17T17:14:07.343Z,21.56